Mn Pelican — FMLR — position and weather

sailwx.info

Track history (hours):
 
Tides and Currents Weather Stations Pressure Air Temp Water Temp Dewpoint Dewpoint Depression Visibility Wind Speed Wind Dir Waves Ship Positions

Mn Pelican

Last reported at 2016-Jun-23 08:33 UTC. Time now 2016-Jun-25 16:03 UTC.
Position N 49°12' W 004°56'.

Length 155 m; draft 5.8 m.

Type: Ship. MMSI: 228315700.

Date/timePositionNaut miles runAvg speedWind from/ knotsBaromVisibWave heightAir tempDewpointWater temp
2016-Jun-23 08:33N 49°12' W 004°56'1615.1
2016-Jun-23 07:30N 49°22' W 004°37'2713.9
2016-Jun-23 05:32N 49°38' W 004°03'3015.0
2016-Jun-23 03:34N 49°56' W 003°25'1616.4
2016-Jun-23 02:33N 50°05' W 003°04'1716.4
2016-Jun-23 01:31N 50°13' W 002°41'3415.1
2016-Jun-22 23:17N 50°30' W 001°56'1013.1
2016-Jun-22 22:33N 50°40' W 001°56'3 2.9
2016-Jun-22 21:26N 50°42' W 001°59'0 0.0
2016-Jun-22 20:32N 50°42' W 001°59'0 0.0
2016-Jun-22 19:31N 50°42' W 001°59'0 0.0
2016-Jun-22 18:31N 50°42' W 001°59'0 0.0
2016-Jun-22 17:31N 50°42' W 001°59'0 0.2
2016-Jun-22 16:33N 50°42' W 001°60'8 7.9
2016-Jun-22 15:34N 50°36' W 001°53'6114.8
2016-Jun-22 11:25N 49°50' W 002°57'17115.5
2016-Jun-22 00:24N 47°29' W 005°24'3719.0
2016-Jun-21 22:28N 46°54' W 005°05'3718.8
2016-Jun-21 20:30N 46°20' W 004°45'18311.4
2016-Jun-21 04:30N 43°31' W 003°09'4514.3
2016-Jun-21 01:20N 44°14' W 003°28'1011.8
2016-Jun-21 00:28N 44°22' W 003°36'1212.5
2016-Jun-20 23:32N 44°33' W 003°43'1414.5
2016-Jun-20 22:33N 44°46' W 003°51'1414.4
2016-Jun-20 21:33N 44°59' W 003°58'29211.9
2016-Jun-19 21:04N 49°51' W 003°37'815.4
2016-Jun-19 20:32N 49°56' W 003°27'1414.7
2016-Jun-19 19:33N 50°04' W 003°08'1414.2
2016-Jun-19 18:33N 50°11' W 002°49'1414.0
2016-Jun-19 17:33N 50°18' W 002°30'2814.0
2016-Jun-19 15:33N 50°34' W 001°55'9 8.5
2016-Jun-19 14:33N 50°42' W 001°59'0 0.0
2016-Jun-19 13:30N 50°42' W 001°59'0 0.0
2016-Jun-19 12:32N 50°42' W 001°59'0 0.0
2016-Jun-19 11:32N 50°42' W 001°59'0 0.0
2016-Jun-19 10:31N 50°42' W 001°59'0 0.0
2016-Jun-19 09:31N 50°42' W 001°59'0 0.2
2016-Jun-19 08:33N 50°42' W 001°59'9 8.9
2016-Jun-19 07:33N 50°35' W 001°51'17212.9
2016-Jun-18 18:13N 48°53' W 005°25'  
2016-Jun-16 05:33N 49°43' W 003°54'1515.3
2016-Jun-16 04:33N 49°53' W 003°35'1514.9
2016-Jun-16 03:33N 50°01' W 003°16'1515.2
2016-Jun-16 02:33N 50°08' W 002°55'1515.1
2016-Jun-16 01:33N 50°15' W 002°34'1615.1
2016-Jun-16 00:30N 50°23' W 002°13'1414.6
2016-Jun-15 23:33N 50°33' W 001°56'10 9.3
2016-Jun-15 22:28N 50°42' W 001°59'0 0.0
2016-Jun-15 21:34N 50°42' W 001°59'0 0.0
2016-Jun-15 20:33N 50°42' W 001°59'0 0.0
2016-Jun-15 19:33N 50°42' W 001°59'0 0.0
2016-Jun-15 18:32N 50°42' W 001°59'0 0.0
2016-Jun-15 17:32N 50°42' W 001°59'0 0.0
2016-Jun-15 16:33N 50°42' W 001°59'7 7.0
2016-Jun-15 15:34N 50°37' W 001°53'  
Track history (hours):
 
Tides and Currents Weather Stations Pressure Air Temp Water Temp Dewpoint Dewpoint Depression Visibility Wind Speed Wind Dir Waves Ship Positions

Mn Pelican

Last reported at 2016-Jun-23 08:33 UTC. Time now 2016-Jun-25 16:03 UTC.
Position N 49°12' W 004°56'.

Length 155 m; draft 5.8 m.

Type: Ship. MMSI: 228315700.

Date/timePositionNaut miles runAvg speedWind from/ knotsBaromVisibWave heightAir tempDewpointWater temp
2016-Jun-23 08:33N 49°12' W 004°56'1615.1
2016-Jun-23 07:30N 49°22' W 004°37'2713.9
2016-Jun-23 05:32N 49°38' W 004°03'3015.0
2016-Jun-23 03:34N 49°56' W 003°25'1616.4
2016-Jun-23 02:33N 50°05' W 003°04'1716.4
2016-Jun-23 01:31N 50°13' W 002°41'3415.1
2016-Jun-22 23:17N 50°30' W 001°56'1013.1
2016-Jun-22 22:33N 50°40' W 001°56'3 2.9
2016-Jun-22 21:26N 50°42' W 001°59'0 0.0
2016-Jun-22 20:32N 50°42' W 001°59'0 0.0
2016-Jun-22 19:31N 50°42' W 001°59'0 0.0
2016-Jun-22 18:31N 50°42' W 001°59'0 0.0
2016-Jun-22 17:31N 50°42' W 001°59'0 0.2
2016-Jun-22 16:33N 50°42' W 001°60'8 7.9
2016-Jun-22 15:34N 50°36' W 001°53'6114.8
2016-Jun-22 11:25N 49°50' W 002°57'17115.5
2016-Jun-22 00:24N 47°29' W 005°24'3719.0
2016-Jun-21 22:28N 46°54' W 005°05'3718.8
2016-Jun-21 20:30N 46°20' W 004°45'18311.4
2016-Jun-21 04:30N 43°31' W 003°09'4514.3
2016-Jun-21 01:20N 44°14' W 003°28'1011.8
2016-Jun-21 00:28N 44°22' W 003°36'1212.5
2016-Jun-20 23:32N 44°33' W 003°43'1414.5
2016-Jun-20 22:33N 44°46' W 003°51'1414.4
2016-Jun-20 21:33N 44°59' W 003°58'29211.9
2016-Jun-19 21:04N 49°51' W 003°37'815.4
2016-Jun-19 20:32N 49°56' W 003°27'1414.7
2016-Jun-19 19:33N 50°04' W 003°08'1414.2
2016-Jun-19 18:33N 50°11' W 002°49'1414.0
2016-Jun-19 17:33N 50°18' W 002°30'2814.0
2016-Jun-19 15:33N 50°34' W 001°55'9 8.5
2016-Jun-19 14:33N 50°42' W 001°59'0 0.0
2016-Jun-19 13:30N 50°42' W 001°59'0 0.0
2016-Jun-19 12:32N 50°42' W 001°59'0 0.0
2016-Jun-19 11:32N 50°42' W 001°59'0 0.0
2016-Jun-19 10:31N 50°42' W 001°59'0 0.0
2016-Jun-19 09:31N 50°42' W 001°59'0 0.2
2016-Jun-19 08:33N 50°42' W 001°59'9 8.9
2016-Jun-19 07:33N 50°35' W 001°51'17212.9
2016-Jun-18 18:13N 48°53' W 005°25'  
2016-Jun-16 05:33N 49°43' W 003°54'1515.3
2016-Jun-16 04:33N 49°53' W 003°35'1514.9
2016-Jun-16 03:33N 50°01' W 003°16'1515.2
2016-Jun-16 02:33N 50°08' W 002°55'1515.1
2016-Jun-16 01:33N 50°15' W 002°34'1615.1
2016-Jun-16 00:30N 50°23' W 002°13'1414.6
2016-Jun-15 23:33N 50°33' W 001°56'10 9.3
2016-Jun-15 22:28N 50°42' W 001°59'0 0.0
2016-Jun-15 21:34N 50°42' W 001°59'0 0.0
2016-Jun-15 20:33N 50°42' W 001°59'0 0.0
2016-Jun-15 19:33N 50°42' W 001°59'0 0.0
2016-Jun-15 18:32N 50°42' W 001°59'0 0.0
2016-Jun-15 17:32N 50°42' W 001°59'0 0.0
2016-Jun-15 16:33N 50°42' W 001°59'7 7.0
2016-Jun-15 15:34N 50°37' W 001°53'  

Dump ship's entire track history